sensor_id;sensor_type;location;lat;lon;timestamp;temperature;humidity
47414;DHT22;33163;0.000;0.000;2022-07-23T00:01:47;23.10;60.40
47414;DHT22;33163;0.000;0.000;2022-07-23T00:04:14;23.10;60.40
47414;DHT22;33163;0.000;0.000;2022-07-23T00:06:41;23.10;60.50
47414;DHT22;33163;0.000;0.000;2022-07-23T00:09:08;23.10;60.50
47414;DHT22;33163;0.000;0.000;2022-07-23T00:11:35;23.10;60.60
47414;DHT22;33163;0.000;0.000;2022-07-23T00:14:01;23.10;60.50
47414;DHT22;33163;0.000;0.000;2022-07-23T00:16:30;23.10;60.50
47414;DHT22;33163;0.000;0.000;2022-07-23T00:18:57;23.10;60.60
47414;DHT22;33163;0.000;0.000;2022-07-23T00:21:26;23.10;60.10
47414;DHT22;33163;0.000;0.000;2022-07-23T00:23:53;23.10;60.60
47414;DHT22;33163;0.000;0.000;2022-07-23T00:26:20;23.10;60.50
47414;DHT22;33163;0.000;0.000;2022-07-23T00:28:46;23.10;60.60
47414;DHT22;33163;0.000;0.000;2022-07-23T00:31:13;23.10;60.60
47414;DHT22;33163;0.000;0.000;2022-07-23T00:33:42;23.00;60.60
47414;DHT22;33163;0.000;0.000;2022-07-23T00:36:09;23.00;60.50
47414;DHT22;33163;0.000;0.000;2022-07-23T00:38:35;23.00;60.50
47414;DHT22;33163;0.000;0.000;2022-07-23T00:41:02;23.00;61.20
47414;DHT22;33163;0.000;0.000;2022-07-23T00:43:29;23.00;60.50
47414;DHT22;33163;0.000;0.000;2022-07-23T00:45:56;23.00;60.50
47414;DHT22;33163;0.000;0.000;2022-07-23T00:48:25;23.00;60.60
47414;DHT22;33163;0.000;0.000;2022-07-23T00:50:53;23.00;60.60
47414;DHT22;33163;0.000;0.000;2022-07-23T00:53:20;23.00;60.50
47414;DHT22;33163;0.000;0.000;2022-07-23T00:55:48;23.00;60.60
47414;DHT22;33163;0.000;0.000;2022-07-23T00:58:15;23.00;60.60
47414;DHT22;33163;0.000;0.000;2022-07-23T01:00:42;23.00;60.60
47414;DHT22;33163;0.000;0.000;2022-07-23T01:03:09;23.00;60.50
47414;DHT22;33163;0.000;0.000;2022-07-23T01:05:36;23.00;60.50
47414;DHT22;33163;0.000;0.000;2022-07-23T01:08:05;23.00;60.60
47414;DHT22;33163;0.000;0.000;2022-07-23T01:10:32;23.00;60.60
47414;DHT22;33163;0.000;0.000;2022-07-23T01:13:00;23.00;60.60
47414;DHT22;33163;0.000;0.000;2022-07-23T01:15:28;23.00;60.60
47414;DHT22;33163;0.000;0.000;2022-07-23T01:17:54;23.00;60.60
47414;DHT22;33163;0.000;0.000;2022-07-23T01:20:21;23.00;60.60
47414;DHT22;33163;0.000;0.000;2022-07-23T01:22:50;23.00;60.60
47414;DHT22;33163;0.000;0.000;2022-07-23T01:25:17;23.00;60.60
47414;DHT22;33163;0.000;0.000;2022-07-23T01:27:44;23.00;60.60
47414;DHT22;33163;0.000;0.000;2022-07-23T01:30:12;23.00;60.60
47414;DHT22;33163;0.000;0.000;2022-07-23T01:32:39;23.00;60.70
47414;DHT22;33163;0.000;0.000;2022-07-23T01:35:07;23.00;60.60
47414;DHT22;33163;0.000;0.000;2022-07-23T01:37:34;23.00;60.60
47414;DHT22;33163;0.000;0.000;2022-07-23T01:40:03;22.90;60.70
47414;DHT22;33163;0.000;0.000;2022-07-23T01:42:30;23.00;60.70
47414;DHT22;33163;0.000;0.000;2022-07-23T01:44:57;22.90;60.60
47414;DHT22;33163;0.000;0.000;2022-07-23T01:47:24;22.90;60.60
47414;DHT22;33163;0.000;0.000;2022-07-23T01:49:51;23.00;60.60
47414;DHT22;33163;0.000;0.000;2022-07-23T01:52:17;22.90;60.70
47414;DHT22;33163;0.000;0.000;2022-07-23T01:54:44;23.00;60.70
47414;DHT22;33163;0.000;0.000;2022-07-23T01:57:12;22.90;60.60
47414;DHT22;33163;0.000;0.000;2022-07-23T01:59:39;23.00;60.70
47414;DHT22;33163;0.000;0.000;2022-07-23T02:02:06;22.90;60.70
47414;DHT22;33163;0.000;0.000;2022-07-23T02:04:33;23.00;60.70
47414;DHT22;33163;0.000;0.000;2022-07-23T02:07:02;22.90;60.60
47414;DHT22;33163;0.000;0.000;2022-07-23T02:09:29;22.90;61.30
47414;DHT22;33163;0.000;0.000;2022-07-23T02:11:58;22.90;60.60
47414;DHT22;33163;0.000;0.000;2022-07-23T02:14:26;22.90;60.60
47414;DHT22;33163;0.000;0.000;2022-07-23T02:16:53;22.90;60.60
47414;DHT22;33163;0.000;0.000;2022-07-23T02:19:20;22.90;60.60
47414;DHT22;33163;0.000;0.000;2022-07-23T02:21:47;22.90;60.60
47414;DHT22;33163;0.000;0.000;2022-07-23T02:24:14;22.90;60.60
47414;DHT22;33163;0.000;0.000;2022-07-23T02:26:41;22.90;60.70
47414;DHT22;33163;0.000;0.000;2022-07-23T02:29:07;22.90;61.20
47414;DHT22;33163;0.000;0.000;2022-07-23T02:31:36;22.90;60.60
47414;DHT22;33163;0.000;0.000;2022-07-23T02:34:03;22.90;61.30
47414;DHT22;33163;0.000;0.000;2022-07-23T02:36:29;22.90;60.70
47414;DHT22;33163;0.000;0.000;2022-07-23T02:38:58;22.90;60.60
47414;DHT22;33163;0.000;0.000;2022-07-23T02:41:25;22.90;60.70
47414;DHT22;33163;0.000;0.000;2022-07-23T02:43:52;22.90;60.60
47414;DHT22;33163;0.000;0.000;2022-07-23T02:46:18;22.90;60.60
47414;DHT22;33163;0.000;0.000;2022-07-23T02:48:46;22.90;60.60
47414;DHT22;33163;0.000;0.000;2022-07-23T02:51:13;22.90;60.60
47414;DHT22;33163;0.000;0.000;2022-07-23T02:53:40;22.90;60.60
47414;DHT22;33163;0.000;0.000;2022-07-23T02:56:07;22.80;61.00
47414;DHT22;33163;0.000;0.000;2022-07-23T02:58:34;22.90;60.70
47414;DHT22;33163;0.000;0.000;2022-07-23T03:01:01;22.80;60.50
47414;DHT22;33163;0.000;0.000;2022-07-23T03:03:27;22.80;60.60
47414;DHT22;33163;0.000;0.000;2022-07-23T03:05:55;22.80;60.60
47414;DHT22;33163;0.000;0.000;2022-07-23T03:08:22;22.80;60.60
47414;DHT22;33163;0.000;0.000;2022-07-23T03:10:49;22.80;60.60
47414;DHT22;33163;0.000;0.000;2022-07-23T03:13:16;22.80;60.60
47414;DHT22;33163;0.000;0.000;2022-07-23T03:15:43;22.80;60.60
47414;DHT22;33163;0.000;0.000;2022-07-23T03:18:09;22.80;60.60
47414;DHT22;33163;0.000;0.000;2022-07-23T03:20:36;22.80;60.60
47414;DHT22;33163;0.000;0.000;2022-07-23T03:23:04;22.80;60.60
47414;DHT22;33163;0.000;0.000;2022-07-23T03:25:31;22.80;61.20
47414;DHT22;33163;0.000;0.000;2022-07-23T03:27:58;22.80;61.30
47414;DHT22;33163;0.000;0.000;2022-07-23T03:30:24;22.80;60.60
47414;DHT22;33163;0.000;0.000;2022-07-23T03:32:51;22.80;60.60
47414;DHT22;33163;0.000;0.000;2022-07-23T03:35:18;22.80;60.60
47414;DHT22;33163;0.000;0.000;2022-07-23T03:37:45;22.80;60.50
47414;DHT22;33163;0.000;0.000;2022-07-23T03:40:13;22.80;60.70
47414;DHT22;33163;0.000;0.000;2022-07-23T03:42:40;22.80;60.50
47414;DHT22;33163;0.000;0.000;2022-07-23T03:45:08;22.80;60.60
47414;DHT22;33163;0.000;0.000;2022-07-23T03:47:35;22.80;60.50
47414;DHT22;33163;0.000;0.000;2022-07-23T03:50:02;22.80;60.60
47414;DHT22;33163;0.000;0.000;2022-07-23T03:52:29;22.80;60.50
47414;DHT22;33163;0.000;0.000;2022-07-23T03:54:58;22.80;60.60
47414;DHT22;33163;0.000;0.000;2022-07-23T03:57:26;22.80;60.50
47414;DHT22;33163;0.000;0.000;2022-07-23T03:59:53;22.80;60.50
47414;DHT22;33163;0.000;0.000;2022-07-23T04:02:20;22.80;60.60
47414;DHT22;33163;0.000;0.000;2022-07-23T04:04:46;22.80;60.60
47414;DHT22;33163;0.000;0.000;2022-07-23T04:07:13;22.80;60.60
47414;DHT22;33163;0.000;0.000;2022-07-23T04:09:40;22.80;60.60
47414;DHT22;33163;0.000;0.000;2022-07-23T04:12:07;22.70;60.50
47414;DHT22;33163;0.000;0.000;2022-07-23T04:14:35;22.80;60.50
47414;DHT22;33163;0.000;0.000;2022-07-23T04:17:02;22.80;60.70
47414;DHT22;33163;0.000;0.000;2022-07-23T04:19:29;22.70;60.50
47414;DHT22;33163;0.000;0.000;2022-07-23T04:21:57;22.70;60.50
47414;DHT22;33163;0.000;0.000;2022-07-23T04:24:24;22.70;60.50
47414;DHT22;33163;0.000;0.000;2022-07-23T04:26:51;22.70;60.60
47414;DHT22;33163;0.000;0.000;2022-07-23T04:29:18;22.70;60.60
47414;DHT22;33163;0.000;0.000;2022-07-23T04:31:46;22.70;60.60
47414;DHT22;33163;0.000;0.000;2022-07-23T04:34:13;22.70;60.70
47414;DHT22;33163;0.000;0.000;2022-07-23T04:36:40;22.80;60.70
47414;DHT22;33163;0.000;0.000;2022-07-23T04:39:06;22.70;60.70
47414;DHT22;33163;0.000;0.000;2022-07-23T04:41:33;22.70;60.70
47414;DHT22;33163;0.000;0.000;2022-07-23T04:44:00;22.70;60.60
47414;DHT22;33163;0.000;0.000;2022-07-23T04:46:27;22.70;60.70
47414;DHT22;33163;0.000;0.000;2022-07-23T04:48:55;22.70;60.70
47414;DHT22;33163;0.000;0.000;2022-07-23T04:51:22;22.70;60.70
47414;DHT22;33163;0.000;0.000;2022-07-23T04:53:49;22.70;60.70
47414;DHT22;33163;0.000;0.000;2022-07-23T04:56:16;22.70;60.70
47414;DHT22;33163;0.000;0.000;2022-07-23T04:58:43;22.70;60.70
47414;DHT22;33163;0.000;0.000;2022-07-23T05:01:10;22.70;60.70
47414;DHT22;33163;0.000;0.000;2022-07-23T05:03:37;22.70;60.70
47414;DHT22;33163;0.000;0.000;2022-07-23T05:06:05;22.70;60.70
47414;DHT22;33163;0.000;0.000;2022-07-23T05:08:32;22.70;60.70
47414;DHT22;33163;0.000;0.000;2022-07-23T05:10:58;22.70;60.70
47414;DHT22;33163;0.000;0.000;2022-07-23T05:13:25;22.70;60.70
47414;DHT22;33163;0.000;0.000;2022-07-23T05:15:52;22.70;60.70
47414;DHT22;33163;0.000;0.000;2022-07-23T05:18:19;22.70;60.70
47414;DHT22;33163;0.000;0.000;2022-07-23T05:20:45;22.70;60.70
47414;DHT22;33163;0.000;0.000;2022-07-23T05:23:14;22.70;60.70
47414;DHT22;33163;0.000;0.000;2022-07-23T05:25:40;22.70;60.70
47414;DHT22;33163;0.000;0.000;2022-07-23T05:28:07;22.70;60.70
47414;DHT22;33163;0.000;0.000;2022-07-23T05:30:34;22.70;60.90
47414;DHT22;33163;0.000;0.000;2022-07-23T05:33:01;22.70;60.90
47414;DHT22;33163;0.000;0.000;2022-07-23T05:35:28;22.70;60.80
47414;DHT22;33163;0.000;0.000;2022-07-23T05:37:54;22.70;60.80
47414;DHT22;33163;0.000;0.000;2022-07-23T05:40:22;22.70;61.00
47414;DHT22;33163;0.000;0.000;2022-07-23T05:42:49;22.70;61.00
47414;DHT22;33163;0.000;0.000;2022-07-23T05:45:16;22.70;61.00
47414;DHT22;33163;0.000;0.000;2022-07-23T05:47:43;22.70;61.10
47414;DHT22;33163;0.000;0.000;2022-07-23T05:50:11;22.70;61.00
47414;DHT22;33163;0.000;0.000;2022-07-23T05:52:38;22.70;61.00
47414;DHT22;33163;0.000;0.000;2022-07-23T05:55:05;22.70;61.30
47414;DHT22;33163;0.000;0.000;2022-07-23T05:57:34;22.70;61.40
47414;DHT22;33163;0.000;0.000;2022-07-23T06:00:01;22.70;61.20
47414;DHT22;33163;0.000;0.000;2022-07-23T06:02:28;22.70;61.30
47414;DHT22;33163;0.000;0.000;2022-07-23T06:04:55;22.70;61.20
47414;DHT22;33163;0.000;0.000;2022-07-23T06:07:22;22.70;61.10
47414;DHT22;33163;0.000;0.000;2022-07-23T06:09:49;22.70;61.10
47414;DHT22;33163;0.000;0.000;2022-07-23T06:12:15;22.70;61.00
47414;DHT22;33163;0.000;0.000;2022-07-23T06:14:44;22.80;61.10
47414;DHT22;33163;0.000;0.000;2022-07-23T06:17:10;22.80;61.20
47414;DHT22;33163;0.000;0.000;2022-07-23T06:19:37;22.80;61.90
47414;DHT22;33163;0.000;0.000;2022-07-23T06:22:04;22.70;61.20
47414;DHT22;33163;0.000;0.000;2022-07-23T06:24:31;22.80;61.30
47414;DHT22;33163;0.000;0.000;2022-07-23T06:26:58;22.80;61.30
47414;DHT22;33163;0.000;0.000;2022-07-23T06:29:24;22.80;61.30
47414;DHT22;33163;0.000;0.000;2022-07-23T06:31:53;22.80;61.50
47414;DHT22;33163;0.000;0.000;2022-07-23T06:34:19;22.80;61.60
47414;DHT22;33163;0.000;0.000;2022-07-23T06:36:46;22.80;62.20
47414;DHT22;33163;0.000;0.000;2022-07-23T06:39:13;22.80;61.50
47414;DHT22;33163;0.000;0.000;2022-07-23T06:41:40;22.80;62.10
47414;DHT22;33163;0.000;0.000;2022-07-23T06:44:07;22.80;61.40
47414;DHT22;33163;0.000;0.000;2022-07-23T06:46:34;22.80;61.40
47414;DHT22;33163;0.000;0.000;2022-07-23T06:49:02;22.80;61.40
47414;DHT22;33163;0.000;0.000;2022-07-23T06:51:29;22.80;61.40
47414;DHT22;33163;0.000;0.000;2022-07-23T06:53:58;22.80;61.40
47414;DHT22;33163;0.000;0.000;2022-07-23T06:56:25;22.80;61.30
47414;DHT22;33163;0.000;0.000;2022-07-23T06:58:51;22.90;61.20
47414;DHT22;33163;0.000;0.000;2022-07-23T07:01:19;22.90;61.20
47414;DHT22;33163;0.000;0.000;2022-07-23T07:03:46;22.90;61.10
47414;DHT22;33163;0.000;0.000;2022-07-23T07:06:15;22.90;61.10
47414;DHT22;33163;0.000;0.000;2022-07-23T07:08:42;22.90;61.20
47414;DHT22;33163;0.000;0.000;2022-07-23T07:11:09;22.90;61.20
47414;DHT22;33163;0.000;0.000;2022-07-23T07:13:36;22.90;61.20
47414;DHT22;33163;0.000;0.000;2022-07-23T07:16:03;22.90;61.20
47414;DHT22;33163;0.000;0.000;2022-07-23T07:18:30;22.90;61.20
47414;DHT22;33163;0.000;0.000;2022-07-23T07:20:57;22.90;61.20
47414;DHT22;33163;0.000;0.000;2022-07-23T07:23:25;22.90;61.10
47414;DHT22;33163;0.000;0.000;2022-07-23T07:25:52;23.00;61.10
47414;DHT22;33163;0.000;0.000;2022-07-23T07:28:18;23.00;61.10
47414;DHT22;33163;0.000;0.000;2022-07-23T07:30:45;23.00;60.90
47414;DHT22;33163;0.000;0.000;2022-07-23T07:33:12;23.00;61.00
47414;DHT22;33163;0.000;0.000;2022-07-23T07:35:39;23.00;61.00
47414;DHT22;33163;0.000;0.000;2022-07-23T07:38:06;23.00;61.00
47414;DHT22;33163;0.000;0.000;2022-07-23T07:40:34;23.00;61.00
47414;DHT22;33163;0.000;0.000;2022-07-23T07:43:01;23.00;61.00
47414;DHT22;33163;0.000;0.000;2022-07-23T07:45:29;23.00;60.90
47414;DHT22;33163;0.000;0.000;2022-07-23T07:47:55;23.00;60.90
47414;DHT22;33163;0.000;0.000;2022-07-23T07:50:23;23.10;61.00
47414;DHT22;33163;0.000;0.000;2022-07-23T07:52:49;23.10;60.90
47414;DHT22;33163;0.000;0.000;2022-07-23T07:55:16;23.10;61.00
47414;DHT22;33163;0.000;0.000;2022-07-23T07:57:44;23.10;60.90
47414;DHT22;33163;0.000;0.000;2022-07-23T08:00:12;23.10;61.60
47414;DHT22;33163;0.000;0.000;2022-07-23T08:02:43;23.10;60.90
47414;DHT22;33163;0.000;0.000;2022-07-23T08:05:10;23.10;60.90
47414;DHT22;33163;0.000;0.000;2022-07-23T08:07:37;23.10;60.90
47414;DHT22;33163;0.000;0.000;2022-07-23T08:10:06;23.10;61.00
47414;DHT22;33163;0.000;0.000;2022-07-23T08:12:41;23.10;61.00
47414;DHT22;33163;0.000;0.000;2022-07-23T08:15:10;23.10;60.90
47414;DHT22;33163;0.000;0.000;2022-07-23T08:17:37;23.20;61.00
47414;DHT22;33163;0.000;0.000;2022-07-23T08:20:05;23.20;61.00
47414;DHT22;33163;0.000;0.000;2022-07-23T08:22:46;23.20;60.80
47414;DHT22;33163;0.000;0.000;2022-07-23T08:25:13;23.20;60.80
47414;DHT22;33163;0.000;0.000;2022-07-23T08:27:40;23.20;60.80
47414;DHT22;33163;0.000;0.000;2022-07-23T08:30:09;23.20;60.80
47414;DHT22;33163;0.000;0.000;2022-07-23T08:32:58;23.30;60.80
47414;DHT22;33163;0.000;0.000;2022-07-23T08:35:29;23.30;60.90
47414;DHT22;33163;0.000;0.000;2022-07-23T08:37:59;23.30;60.90
47414;DHT22;33163;0.000;0.000;2022-07-23T08:40:28;23.30;61.00
47414;DHT22;33163;0.000;0.000;2022-07-23T08:42:55;23.30;61.00
47414;DHT22;33163;0.000;0.000;2022-07-23T08:45:25;23.20;61.00
47414;DHT22;33163;0.000;0.000;2022-07-23T08:47:54;23.20;61.00
47414;DHT22;33163;0.000;0.000;2022-07-23T08:50:23;23.20;61.00
47414;DHT22;33163;0.000;0.000;2022-07-23T08:52:51;23.20;61.00
47414;DHT22;33163;0.000;0.000;2022-07-23T08:55:33;23.30;60.90
47414;DHT22;33163;0.000;0.000;2022-07-23T08:58:01;23.30;60.90
47414;DHT22;33163;0.000;0.000;2022-07-23T09:00:29;23.20;60.80
47414;DHT22;33163;0.000;0.000;2022-07-23T09:02:59;23.30;60.80
47414;DHT22;33163;0.000;0.000;2022-07-23T09:05:26;23.30;60.80
47414;DHT22;33163;0.000;0.000;2022-07-23T09:08:13;23.30;60.70
47414;DHT22;33163;0.000;0.000;2022-07-23T09:10:51;23.30;60.60
47414;DHT22;33163;0.000;0.000;2022-07-23T09:13:36;23.40;60.70
47414;DHT22;33163;0.000;0.000;2022-07-23T09:16:07;23.40;60.80
47414;DHT22;33163;0.000;0.000;2022-07-23T09:18:41;23.40;60.70
47414;DHT22;33163;0.000;0.000;2022-07-23T09:21:14;23.40;60.70
47414;DHT22;33163;0.000;0.000;2022-07-23T09:23:43;23.40;60.70
47414;DHT22;33163;0.000;0.000;2022-07-23T09:26:21;23.40;60.60
47414;DHT22;33163;0.000;0.000;2022-07-23T09:28:54;23.50;60.70
47414;DHT22;33163;0.000;0.000;2022-07-23T09:31:23;23.50;60.70
47414;DHT22;33163;0.000;0.000;2022-07-23T09:33:50;23.50;60.70
47414;DHT22;33163;0.000;0.000;2022-07-23T09:36:27;23.50;60.70
47414;DHT22;33163;0.000;0.000;2022-07-23T09:38:55;23.60;60.70
47414;DHT22;33163;0.000;0.000;2022-07-23T09:41:23;23.50;60.60
47414;DHT22;33163;0.000;0.000;2022-07-23T09:43:55;23.60;60.70
47414;DHT22;33163;0.000;0.000;2022-07-23T09:46:26;23.60;60.70
47414;DHT22;33163;0.000;0.000;2022-07-23T09:48:55;23.60;60.70
47414;DHT22;33163;0.000;0.000;2022-07-23T09:51:23;23.60;60.60
47414;DHT22;33163;0.000;0.000;2022-07-23T09:54:00;23.60;60.60
47414;DHT22;33163;0.000;0.000;2022-07-23T09:56:27;23.60;60.60
47414;DHT22;33163;0.000;0.000;2022-07-23T09:58:55;23.60;60.60
47414;DHT22;33163;0.000;0.000;2022-07-23T10:01:31;23.70;60.60
47414;DHT22;33163;0.000;0.000;2022-07-23T10:03:58;23.70;60.60
47414;DHT22;33163;0.000;0.000;2022-07-23T10:06:26;23.70;60.60
47414;DHT22;33163;0.000;0.000;2022-07-23T10:08:54;23.70;60.50
47414;DHT22;33163;0.000;0.000;2022-07-23T10:11:24;23.70;60.50
47414;DHT22;33163;0.000;0.000;2022-07-23T10:13:51;23.70;60.50
47414;DHT22;33163;0.000;0.000;2022-07-23T10:16:21;23.70;60.50
47414;DHT22;33163;0.000;0.000;2022-07-23T10:18:49;23.70;60.40
47414;DHT22;33163;0.000;0.000;2022-07-23T10:21:21;23.70;60.40
47414;DHT22;33163;0.000;0.000;2022-07-23T10:24:04;23.70;60.40
47414;DHT22;33163;0.000;0.000;2022-07-23T10:26:37;23.70;60.40
47414;DHT22;33163;0.000;0.000;2022-07-23T10:29:13;23.80;60.40
47414;DHT22;33163;0.000;0.000;2022-07-23T10:31:52;23.70;60.40
47414;DHT22;33163;0.000;0.000;2022-07-23T10:34:27;23.70;60.40
47414;DHT22;33163;0.000;0.000;2022-07-23T10:37:00;23.80;60.40
47414;DHT22;33163;0.000;0.000;2022-07-23T10:39:30;23.80;60.40
47414;DHT22;33163;0.000;0.000;2022-07-23T10:42:08;23.80;60.40
47414;DHT22;33163;0.000;0.000;2022-07-23T10:44:39;23.80;60.40
47414;DHT22;33163;0.000;0.000;2022-07-23T10:47:08;23.80;60.40
47414;DHT22;33163;0.000;0.000;2022-07-23T10:49:54;23.80;60.40
47414;DHT22;33163;0.000;0.000;2022-07-23T10:52:41;23.80;60.40
47414;DHT22;33163;0.000;0.000;2022-07-23T10:55:48;23.90;60.40
47414;DHT22;33163;0.000;0.000;2022-07-23T10:58:20;23.90;60.40
47414;DHT22;33163;0.000;0.000;2022-07-23T11:00:47;23.90;60.40
47414;DHT22;33163;0.000;0.000;2022-07-23T11:03:32;23.90;60.40
47414;DHT22;33163;0.000;0.000;2022-07-23T11:06:03;23.90;61.00
47414;DHT22;33163;0.000;0.000;2022-07-23T11:08:30;23.90;60.40
47414;DHT22;33163;0.000;0.000;2022-07-23T11:11:12;24.00;60.40
47414;DHT22;33163;0.000;0.000;2022-07-23T11:13:41;24.00;60.40
47414;DHT22;33163;0.000;0.000;2022-07-23T11:16:20;24.00;60.40
47414;DHT22;33163;0.000;0.000;2022-07-23T11:18:59;24.00;60.40
47414;DHT22;33163;0.000;0.000;2022-07-23T11:21:52;24.00;60.30
47414;DHT22;33163;0.000;0.000;2022-07-23T11:24:21;24.00;60.30
47414;DHT22;33163;0.000;0.000;2022-07-23T11:27:02;24.10;60.30
47414;DHT22;33163;0.000;0.000;2022-07-23T11:29:52;24.00;60.20
47414;DHT22;33163;0.000;0.000;2022-07-23T11:32:25;24.10;60.30
47414;DHT22;33163;0.000;0.000;2022-07-23T11:34:54;24.10;60.20
47414;DHT22;33163;0.000;0.000;2022-07-23T11:37:43;24.10;60.20
47414;DHT22;33163;0.000;0.000;2022-07-23T11:40:12;24.10;60.20
47414;DHT22;33163;0.000;0.000;2022-07-23T11:42:50;24.10;60.20
47414;DHT22;33163;0.000;0.000;2022-07-23T11:45:17;24.10;60.10
47414;DHT22;33163;0.000;0.000;2022-07-23T11:47:44;24.10;60.10
47414;DHT22;33163;0.000;0.000;2022-07-23T11:50:11;24.10;60.10
47414;DHT22;33163;0.000;0.000;2022-07-23T11:52:39;24.20;60.10
47414;DHT22;33163;0.000;0.000;2022-07-23T11:55:08;24.10;60.10
47414;DHT22;33163;0.000;0.000;2022-07-23T11:57:37;24.10;60.00
47414;DHT22;33163;0.000;0.000;2022-07-23T12:00:07;24.20;60.10
47414;DHT22;33163;0.000;0.000;2022-07-23T12:02:35;24.20;60.10
47414;DHT22;33163;0.000;0.000;2022-07-23T12:05:01;24.20;60.10
47414;DHT22;33163;0.000;0.000;2022-07-23T12:07:30;24.20;60.10
47414;DHT22;33163;0.000;0.000;2022-07-23T12:09:59;24.20;60.10
47414;DHT22;33163;0.000;0.000;2022-07-23T12:12:27;24.20;60.10
47414;DHT22;33163;0.000;0.000;2022-07-23T12:15:01;24.20;60.00
47414;DHT22;33163;0.000;0.000;2022-07-23T12:17:30;24.20;60.10
47414;DHT22;33163;0.000;0.000;2022-07-23T12:20:00;24.20;60.00
47414;DHT22;33163;0.000;0.000;2022-07-23T12:22:34;24.20;60.10
47414;DHT22;33163;0.000;0.000;2022-07-23T12:25:03;24.20;60.00
47414;DHT22;33163;0.000;0.000;2022-07-23T12:27:32;24.20;60.00
47414;DHT22;33163;0.000;0.000;2022-07-23T12:30:14;24.20;60.00
47414;DHT22;33163;0.000;0.000;2022-07-23T12:32:43;24.20;60.10
47414;DHT22;33163;0.000;0.000;2022-07-23T12:35:10;24.20;60.00
47414;DHT22;33163;0.000;0.000;2022-07-23T12:37:38;24.30;60.10
47414;DHT22;33163;0.000;0.000;2022-07-23T12:40:20;24.20;60.00
47414;DHT22;33163;0.000;0.000;2022-07-23T12:42:50;24.20;60.00
47414;DHT22;33163;0.000;0.000;2022-07-23T12:45:17;24.20;60.00
47414;DHT22;33163;0.000;0.000;2022-07-23T12:47:54;24.20;60.00
47414;DHT22;33163;0.000;0.000;2022-07-23T12:50:49;24.30;60.10
47414;DHT22;33163;0.000;0.000;2022-07-23T12:53:17;24.30;60.00
47414;DHT22;33163;0.000;0.000;2022-07-23T12:55:45;24.20;60.00
47414;DHT22;33163;0.000;0.000;2022-07-23T12:58:16;24.20;60.10
47414;DHT22;33163;0.000;0.000;2022-07-23T13:01:03;24.20;60.10
47414;DHT22;33163;0.000;0.000;2022-07-23T13:03:34;24.30;60.10
47414;DHT22;33163;0.000;0.000;2022-07-23T13:06:03;24.20;60.10
47414;DHT22;33163;0.000;0.000;2022-07-23T13:08:31;24.20;60.10
47414;DHT22;33163;0.000;0.000;2022-07-23T13:10:58;24.20;60.10
47414;DHT22;33163;0.000;0.000;2022-07-23T13:13:29;24.20;60.10
47414;DHT22;33163;0.000;0.000;2022-07-23T13:15:57;24.20;60.10
47414;DHT22;33163;0.000;0.000;2022-07-23T13:18:24;24.20;60.10
47414;DHT22;33163;0.000;0.000;2022-07-23T13:20:52;24.20;60.10
47414;DHT22;33163;0.000;0.000;2022-07-23T13:23:19;24.20;60.10
47414;DHT22;33163;0.000;0.000;2022-07-23T13:25:46;24.20;60.70
47414;DHT22;33163;0.000;0.000;2022-07-23T13:28:13;24.20;60.10
47414;DHT22;33163;0.000;0.000;2022-07-23T13:30:42;24.20;60.10
47414;DHT22;33163;0.000;0.000;2022-07-23T13:33:09;24.20;60.10
47414;DHT22;33163;0.000;0.000;2022-07-23T13:35:37;24.20;60.10
47414;DHT22;33163;0.000;0.000;2022-07-23T13:38:04;24.20;60.10
47414;DHT22;33163;0.000;0.000;2022-07-23T13:40:33;24.20;60.10
47414;DHT22;33163;0.000;0.000;2022-07-23T13:42:59;24.20;60.10
47414;DHT22;33163;0.000;0.000;2022-07-23T13:45:26;24.20;60.10
47414;DHT22;33163;0.000;0.000;2022-07-23T13:47:54;24.20;60.10
47414;DHT22;33163;0.000;0.000;2022-07-23T13:50:21;24.20;60.20
47414;DHT22;33163;0.000;0.000;2022-07-23T13:52:49;24.30;60.20
47414;DHT22;33163;0.000;0.000;2022-07-23T13:55:16;24.20;60.10
47414;DHT22;33163;0.000;0.000;2022-07-23T13:57:43;24.20;60.20
47414;DHT22;33163;0.000;0.000;2022-07-23T14:00:10;24.30;60.20
47414;DHT22;33163;0.000;0.000;2022-07-23T14:02:39;24.20;60.20
47414;DHT22;33163;0.000;0.000;2022-07-23T14:05:09;24.20;60.20
47414;DHT22;33163;0.000;0.000;2022-07-23T14:07:37;24.20;60.20
47414;DHT22;33163;0.000;0.000;2022-07-23T14:10:05;24.20;60.30
47414;DHT22;33163;0.000;0.000;2022-07-23T14:12:32;24.20;60.30
47414;DHT22;33163;0.000;0.000;2022-07-23T14:14:59;24.20;60.30
47414;DHT22;33163;0.000;0.000;2022-07-23T14:17:26;24.30;60.30
47414;DHT22;33163;0.000;0.000;2022-07-23T14:19:53;24.20;60.30
47414;DHT22;33163;0.000;0.000;2022-07-23T14:22:21;24.20;60.30
47414;DHT22;33163;0.000;0.000;2022-07-23T14:24:48;24.20;60.30
47414;DHT22;33163;0.000;0.000;2022-07-23T14:27:15;24.20;60.40
47414;DHT22;33163;0.000;0.000;2022-07-23T14:29:42;24.20;60.30
47414;DHT22;33163;0.000;0.000;2022-07-23T14:32:09;24.20;60.30
47414;DHT22;33163;0.000;0.000;2022-07-23T14:34:36;24.20;60.40
47414;DHT22;33163;0.000;0.000;2022-07-23T14:37:02;24.20;60.40
47414;DHT22;33163;0.000;0.000;2022-07-23T14:39:31;24.20;60.40
47414;DHT22;33163;0.000;0.000;2022-07-23T14:41:57;24.20;60.40
47414;DHT22;33163;0.000;0.000;2022-07-23T14:44:24;24.20;61.00
47414;DHT22;33163;0.000;0.000;2022-07-23T14:46:51;24.20;60.40
47414;DHT22;33163;0.000;0.000;2022-07-23T14:49:19;24.30;60.40
47414;DHT22;33163;0.000;0.000;2022-07-23T14:51:46;24.20;60.40
47414;DHT22;33163;0.000;0.000;2022-07-23T14:54:12;24.20;60.40
47414;DHT22;33163;0.000;0.000;2022-07-23T14:56:41;24.20;60.40
47414;DHT22;33163;0.000;0.000;2022-07-23T14:59:08;24.20;60.40
47414;DHT22;33163;0.000;0.000;2022-07-23T15:01:35;24.20;60.40
47414;DHT22;33163;0.000;0.000;2022-07-23T15:04:03;24.20;60.40
47414;DHT22;33163;0.000;0.000;2022-07-23T15:06:30;24.20;60.40
47414;DHT22;33163;0.000;0.000;2022-07-23T15:08:57;24.20;60.40
47414;DHT22;33163;0.000;0.000;2022-07-23T15:11:23;24.20;60.50
47414;DHT22;33163;0.000;0.000;2022-07-23T15:13:52;24.20;60.50
47414;DHT22;33163;0.000;0.000;2022-07-23T15:16:19;24.20;60.50
47414;DHT22;33163;0.000;0.000;2022-07-23T15:18:46;24.20;60.50
47414;DHT22;33163;0.000;0.000;2022-07-23T15:21:12;24.20;60.50
47414;DHT22;33163;0.000;0.000;2022-07-23T15:23:39;24.20;60.50
47414;DHT22;33163;0.000;0.000;2022-07-23T15:26:07;24.20;61.20
47414;DHT22;33163;0.000;0.000;2022-07-23T15:28:34;24.20;60.50
47414;DHT22;33163;0.000;0.000;2022-07-23T15:31:04;24.20;60.50
47414;DHT22;33163;0.000;0.000;2022-07-23T15:33:31;24.20;60.50
47414;DHT22;33163;0.000;0.000;2022-07-23T15:35:59;24.20;60.50
47414;DHT22;33163;0.000;0.000;2022-07-23T15:38:27;24.20;60.50
47414;DHT22;33163;0.000;0.000;2022-07-23T15:40:54;24.20;60.50
47414;DHT22;33163;0.000;0.000;2022-07-23T15:43:21;24.20;60.50
47414;DHT22;33163;0.000;0.000;2022-07-23T15:45:48;24.20;60.50
47414;DHT22;33163;0.000;0.000;2022-07-23T15:48:18;24.20;60.50
47414;DHT22;33163;0.000;0.000;2022-07-23T15:50:46;24.20;60.50
47414;DHT22;33163;0.000;0.000;2022-07-23T15:53:13;24.20;60.50
47414;DHT22;33163;0.000;0.000;2022-07-23T15:55:40;24.10;60.50